Time;durP1;ratioP1;P1;durP2;ratioP2;P2;SDS_P1;SDS_P2;PMS_P1;PMS_P2;Temp;Humidity;BMP_temperature;BMP_pressure;BME280_temperature;BME280_humidity;BME280_pressure;Samples;Min_cycle;Max_cycle;Signal;HPM_P1;HPM_P2
2023/03/23 00:01:36;;;;;;;;;;;282.00;2278.40;;;;;;5051331;28;20056;-75
2023/03/23 00:04:03;;;;;;;63.00;30.42;;;281.70;2278.40;;;;;;5050749;28;20278;-76
2023/03/23 00:06:34;;;;;;;68.03;36.22;;;281.70;2278.40;;;;;;5050581;28;20413;-75
2023/03/23 00:09:03;;;;;;;77.20;40.67;;;281.70;2278.40;;;;;;5044560;28;20021;-75
2023/03/23 00:11:31;;;;;;;67.47;35.92;;;281.80;2278.40;;;;;;5051453;28;20025;-76
2023/03/23 00:14:00;;;;;;;66.57;38.47;;;281.80;2278.40;;;;;;5050637;28;20413;-75
2023/03/23 00:16:32;;;;;;;63.55;33.90;;;281.70;2278.40;;;;;;5044973;28;20126;-75
2023/03/23 00:19:03;;;;;;;63.63;33.45;;;256.90;2252.80;;;;;;5050115;28;20376;-75
2023/03/23 00:21:35;;;;;;;57.80;30.55;;;281.60;2278.40;;;;;;5052612;28;20062;-76
2023/03/23 00:24:06;;;;;;;51.05;27.63;;;256.90;2252.80;;;;;;5051414;28;20017;-75
2023/03/23 00:26:33;;;;;;;59.00;28.83;;;256.70;2252.80;;;;;;5052772;28;20497;-75
2023/03/23 00:29:00;;;;;;;48.22;25.58;;;256.60;2252.80;;;;;;5052779;28;20025;-75
2023/03/23 00:31:31;;;;;;;41.70;22.70;;;256.50;2252.80;;;;;;5054087;28;20124;-75
2023/03/23 00:33:58;;;;;;;38.00;20.50;;;256.40;2252.80;;;;;;5054887;28;20111;-75
2023/03/23 00:36:24;;;;;;;42.78;22.17;;;256.10;2252.80;;;;;;5055071;28;20027;-76
2023/03/23 00:38:50;;;;;;;33.33;19.65;;;256.00;2252.80;;;;;;5056278;28;20083;-75
2023/03/23 00:41:15;;;;;;;37.65;19.25;;;230.90;2252.80;;;;;;5055179;28;20025;-76
2023/03/23 00:43:41;;;;;;;;;;;231.20;2252.80;;;;;;5055477;28;20124;-76
2023/03/23 00:46:09;;;;;;;26.42;13.65;;;230.90;2252.80;;;;;;5056069;28;20267;-75
2023/03/23 00:48:44;;;;;;;24.52;15.38;;;231.00;2252.80;;;;;;5055821;28;20021;-77
2023/03/23 00:51:11;;;;;;;24.33;13.73;;;230.90;2252.80;;;;;;5054604;28;20041;-76
2023/03/23 00:53:37;;;;;;;21.65;13.75;;;230.50;2252.80;;;;;;5054485;28;20036;-75
2023/03/23 00:56:03;;;;;;;25.08;14.90;;;230.70;2252.80;;;;;;5055835;28;20033;-75
2023/03/23 00:58:29;;;;;;;27.80;16.55;;;230.90;2252.80;;;;;;5055799;28;20028;-75
2023/03/23 01:00:56;;;;;;;27.30;15.57;;;230.90;2252.80;;;;;;5055718;28;20021;-77
2023/03/23 01:03:25;;;;;;;27.95;17.27;;;231.10;2252.80;;;;;;5054443;28;20025;-77
2023/03/23 01:05:52;;;;;;;30.98;19.02;;;231.30;2252.80;;;;;;5055748;28;20017;-76
2023/03/23 01:08:18;;;;;;;32.90;18.20;;;256.00;2252.80;;;;;;5055664;28;20029;-76
2023/03/23 01:10:45;;;;;;;26.05;15.98;;;256.40;2252.80;;;;;;5054513;28;20091;-77
2023/03/23 01:13:11;;;;;;;34.38;18.15;;;231.10;2252.80;;;;;;5054016;28;20071;-75
2023/03/23 01:15:37;;;;;;;30.23;18.25;;;256.20;2252.80;;;;;;5054493;28;20044;-75
2023/03/23 01:18:03;;;;;;;32.33;18.20;;;256.20;2252.80;;;;;;5052697;28;20044;-76
2023/03/23 01:20:31;;;;;;;32.17;17.60;;;256.30;2252.80;;;;;;5054480;28;20028;-75
2023/03/23 01:23:00;;;;;;;26.60;16.92;;;256.30;2252.80;;;;;;5052010;28;20021;-76
2023/03/23 01:25:31;;;;;;;27.58;16.77;;;256.30;2252.80;;;;;;5053298;28;20016;-76
2023/03/23 01:27:57;;;;;;;24.45;16.20;;;256.20;2252.80;;;;;;5054459;28;20027;-75
2023/03/23 01:30:24;;;;;;;33.92;19.40;;;256.10;2252.80;;;;;;5050215;28;20017;-75
2023/03/23 01:32:51;;;;;;;29.17;19.23;;;256.30;2252.80;;;;;;5052434;28;20037;-76
2023/03/23 01:35:18;;;;;;;28.52;19.15;;;256.40;2252.80;;;;;;5047345;28;20172;-75
2023/03/23 01:37:44;;;;;;;32.50;19.85;;;256.40;2252.80;;;;;;5042771;28;20017;-77
2023/03/23 01:40:10;;;;;;;41.70;22.13;;;256.60;2252.80;;;;;;5056960;28;20356;-76
2023/03/23 01:42:38;;;;;;;30.95;20.50;;;256.60;2252.80;;;;;;5056512;28;20017;-77
2023/03/23 01:45:19;;;;;;;28.65;19.15;;;256.60;2252.80;;;;;;5052889;28;20430;-76
2023/03/23 01:47:58;;;;;;;26.90;16.00;;;256.60;2252.80;;;;;;5052456;28;20029;-75
2023/03/23 01:50:27;;;;;;;29.65;17.33;;;256.50;2252.80;;;;;;5052143;28;20088;-76
2023/03/23 01:52:55;;;;;;;27.80;17.85;;;256.40;2252.80;;;;;;5054239;28;20036;-78
2023/03/23 01:55:22;;;;;;;32.92;18.20;;;256.60;2252.80;;;;;;5054099;28;20079;-75
2023/03/23 01:57:49;;;;;;;31.40;19.00;;;256.60;2252.80;;;;;;5053857;28;20024;-76
2023/03/23 02:00:16;;;;;;;33.30;20.73;;;256.60;2252.80;;;;;;5041367;28;20029;-76
2023/03/23 02:02:47;;;;;;;36.92;21.92;;;256.60;2252.80;;;;;;5050174;28;20100;-75
2023/03/23 02:05:36;;;;;;;30.70;20.58;;;256.70;2252.80;;;;;;5026165;28;20063;-75
2023/03/23 02:08:05;;;;;;;30.25;19.35;;;256.70;2252.80;;;;;;5051477;28;20017;-75
2023/03/23 02:10:32;;;;;;;33.60;18.25;;;256.70;2252.80;;;;;;5053614;28;20383;-76
2023/03/23 02:13:00;;;;;;;28.70;18.38;;;256.60;2252.80;;;;;;5053804;28;20048;-76
2023/03/23 02:15:41;;;;;;;27.90;17.00;;;256.40;2252.80;;;;;;5043867;28;20471;-76
2023/03/23 02:18:16;;;;;;;36.05;19.10;;;256.40;2252.80;;;;;;5051583;28;20045;-77
2023/03/23 02:21:07;;;;;;;34.22;21.33;;;256.40;2252.80;;;;;;5032755;28;20037;-76
2023/03/23 02:23:45;;;;;;;33.63;20.75;;;256.40;2252.80;;;;;;5051233;28;20132;-75
2023/03/23 02:26:35;;;;;;;38.97;24.88;;;256.50;2252.80;;;;;;5052100;28;20017;-75
2023/03/23 02:29:30;;;;;;;42.70;24.73;;;256.50;2252.80;;;;;;5049557;28;20024;-75
2023/03/23 02:32:20;;;;;;;38.60;25.80;;;256.50;2252.80;;;;;;4960063;28;20045;-75
2023/03/23 02:34:56;;;;;;;40.03;25.13;;;256.50;2252.80;;;;;;4970610;28;20042;-75
2023/03/23 02:37:25;;;;;;;35.80;24.08;;;256.50;2252.80;;;;;;4953963;28;20480;-76
2023/03/23 02:39:56;;;;;;;39.58;24.88;;;256.60;2252.80;;;;;;4972440;28;20054;-77
2023/03/23 02:42:28;;;;;;;40.58;24.52;;;256.70;2252.80;;;;;;4956346;28;20026;-76
2023/03/23 02:44:55;;;;;;;36.08;22.55;;;256.80;2252.80;;;;;;4972512;28;20086;-76
2023/03/23 02:47:25;;;;;;;32.55;21.10;;;256.80;2252.80;;;;;;4972080;28;20023;-76
2023/03/23 02:49:54;;;;;;;34.50;21.45;;;256.90;2252.80;;;;;;4972130;28;20046;-75
2023/03/23 02:52:25;;;;;;;33.47;21.25;;;256.80;2252.80;;;;;;4959104;28;20030;-76
2023/03/23 02:54:51;;;;;;;35.00;20.88;;;256.90;2252.80;;;;;;4962857;28;20081;-76
2023/03/23 02:57:17;;;;;;;41.80;22.15;;;256.80;2252.80;;;;;;4955836;28;20026;-76
2023/03/23 02:59:43;;;;;;;40.97;23.67;;;256.90;2252.80;;;;;;4969488;28;20117;-75
2023/03/23 03:02:18;;;;;;;34.83;21.27;;;256.90;2252.80;;;;;;4972043;28;20041;-76
2023/03/23 03:04:57;;;;;;;37.63;23.95;;;256.80;2252.80;;;;;;4969670;28;20041;-75
2023/03/23 03:07:52;;;;;;;44.42;23.48;;;256.90;2252.80;;;;;;4961430;28;20019;-76
2023/03/23 03:10:39;;;;;;;41.78;24.67;;;256.90;2252.80;;;;;;5051921;28;20017;-75
2023/03/23 03:13:09;;;;;;;;;;;256.90;2252.80;;;;;;5046809;28;20028;-76
2023/03/23 03:15:50;;;;;;;35.53;23.92;;;256.80;2252.80;;;;;;5050924;28;20322;-76
2023/03/23 03:18:32;;;;;;;38.00;23.15;;;256.90;2252.80;;;;;;5051530;28;20052;-78
2023/03/23 03:21:06;;;;;;;35.35;24.08;;;256.80;2252.80;;;;;;5050377;28;20041;-76
2023/03/23 03:23:34;;;;;;;40.53;26.02;;;256.80;2252.80;;;;;;5043942;28;20017;-75
2023/03/23 03:26:04;;;;;;;38.28;25.38;;;256.80;2252.80;;;;;;5052472;28;20051;-76
2023/03/23 03:28:32;;;;;;;47.38;27.05;;;256.80;2252.80;;;;;;5042989;28;20103;-74
2023/03/23 03:31:01;;;;;;;39.53;26.05;;;256.70;2252.80;;;;;;5050996;28;20049;-75
2023/03/23 03:33:30;;;;;;;43.75;25.20;;;256.80;2252.80;;;;;;5042957;28;20036;-74
2023/03/23 03:35:59;;;;;;;38.55;25.42;;;256.80;2252.80;;;;;;5051000;28;20026;-75
2023/03/23 03:38:26;;;;;;;37.63;26.48;;;256.60;2252.80;;;;;;5042565;28;20075;-75
2023/03/23 03:40:53;;;;;;;36.88;26.42;;;256.50;2252.80;;;;;;5052186;28;20090;-75
2023/03/23 03:43:19;;;;;;;48.80;28.98;;;256.60;2252.80;;;;;;5052077;28;20024;-74
2023/03/23 03:45:45;;;;;;;50.33;29.50;;;256.70;2252.80;;;;;;5052002;28;20091;-78
2023/03/23 03:48:11;;;;;;;39.15;27.45;;;256.70;2252.80;;;;;;5052127;28;20032;-74
2023/03/23 03:50:37;;;;;;;49.47;29.40;;;256.70;2252.80;;;;;;5052017;28;20127;-74
2023/03/23 03:53:02;;;;;;;43.97;27.98;;;256.80;2252.80;;;;;;5051973;28;20483;-75
2023/03/23 03:55:29;;;;;;;45.55;29.05;;;256.70;2252.80;;;;;;5051881;28;20029;-74
2023/03/23 03:57:55;;;;;;;45.03;28.30;;;256.70;2252.80;;;;;;5034122;28;20022;-75
2023/03/23 04:00:22;;;;;;;45.08;26.88;;;256.60;2252.80;;;;;;5048640;28;20021;-74
2023/03/23 04:02:54;;;;;;;44.53;29.85;;;256.60;2252.80;;;;;;5049410;28;20103;-75
2023/03/23 04:05:21;;;;;;;47.55;29.27;;;256.50;2252.80;;;;;;5051988;28;20520;-75
2023/03/23 04:07:54;;;;;;;49.40;29.65;;;256.40;2252.80;;;;;;5052587;28;20064;-75
2023/03/23 04:10:23;;;;;;;37.38;24.00;;;256.40;2252.80;;;;;;5055324;28;20422;-75
2023/03/23 04:12:49;;;;;;;63.90;27.90;;;256.40;2252.80;;;;;;5052703;28;20455;-75
2023/03/23 04:15:15;;;;;;;39.72;24.30;;;256.20;2252.80;;;;;;5048067;28;20040;-75
2023/03/23 04:17:42;;;;;;;37.30;23.70;;;256.20;2252.80;;;;;;5048177;28;20037;-75
2023/03/23 04:20:17;;;;;;;34.38;22.55;;;231.30;2252.80;;;;;;5033100;28;20044;-75
2023/03/23 04:22:44;;;;;;;38.95;23.73;;;231.10;2252.80;;;;;;5049751;28;20076;-74
2023/03/23 04:25:12;;;;;;;38.67;25.00;;;231.10;2252.80;;;;;;5048525;28;20025;-74
2023/03/23 04:27:43;;;;;;;37.65;23.75;;;230.90;2252.80;;;;;;5037879;28;20017;-74
2023/03/23 04:30:11;;;;;;;40.45;25.90;;;230.70;2252.80;;;;;;5040661;28;20052;-75
2023/03/23 04:32:41;;;;;;;43.60;26.38;;;230.70;2252.80;;;;;;5045105;28;20426;-74
2023/03/23 04:35:10;;;;;;;40.35;26.75;;;230.90;2252.80;;;;;;5050252;28;20038;-75
2023/03/23 04:37:37;;;;;;;46.28;28.60;;;230.90;2252.80;;;;;;5040863;28;20021;-74
2023/03/23 04:40:10;;;;;;;41.83;27.42;;;231.00;2252.80;;;;;;5043055;28;20021;-75
2023/03/23 04:42:37;;;;;;;41.75;27.70;;;231.00;2252.80;;;;;;5039183;28;20016;-75
2023/03/23 04:45:05;;;;;;;44.00;27.50;;;231.00;2252.80;;;;;;5040328;28;20060;-75
2023/03/23 04:47:33;;;;;;;42.35;27.00;;;231.00;2252.80;;;;;;5037982;28;20022;-75
2023/03/23 04:50:00;;;;;;;42.17;28.02;;;231.00;2252.80;;;;;;5038868;28;20032;-74
2023/03/23 04:52:28;;;;;;;45.75;27.13;;;231.10;2252.80;;;;;;5041359;28;20056;-75
2023/03/23 04:54:55;;;;;;;43.97;25.52;;;231.10;2252.80;;;;;;5037318;28;20021;-75
2023/03/23 04:57:22;;;;;;;45.85;27.45;;;231.20;2252.80;;;;;;5035474;28;20021;-74
2023/03/23 04:59:47;;;;;;;46.92;26.90;;;231.30;2252.80;;;;;;5044205;28;20037;-75
2023/03/23 05:02:13;;;;;;;41.65;26.58;;;256.00;2252.80;;;;;;5035473;28;20026;-75
2023/03/23 05:04:40;;;;;;;45.15;26.63;;;256.00;2252.80;;;;;;5035953;28;20044;-75
2023/03/23 05:07:07;;;;;;;41.67;25.67;;;256.10;2252.80;;;;;;5042473;28;20124;-75
2023/03/23 05:09:34;;;;;;;46.30;27.70;;;231.30;2252.80;;;;;;5039818;28;20152;-75
2023/03/23 05:12:08;;;;;;;42.90;26.98;;;256.10;2252.80;;;;;;5041424;28;20018;-75
2023/03/23 05:14:34;;;;;;;42.78;25.50;;;256.10;2252.80;;;;;;5041693;28;20056;-75
2023/03/23 05:17:00;;;;;;;41.17;25.98;;;256.10;2252.80;;;;;;5040857;28;20025;-75
2023/03/23 05:19:27;;;;;;;38.20;25.15;;;256.20;2252.80;;;;;;5074721;28;20040;-75
2023/03/23 05:21:56;;;;;;;36.08;24.70;;;256.30;2252.80;;;;;;5052436;28;20484;-75
2023/03/23 05:24:24;;;;;;;40.03;26.30;;;256.30;2252.80;;;;;;5056413;28;20021;-75
2023/03/23 05:26:52;;;;;;;37.28;25.45;;;256.40;2252.80;;;;;;5073712;28;20466;-75
2023/03/23 05:29:18;;;;;;;38.70;24.38;;;256.50;2252.80;;;;;;5064291;28;20028;-74
2023/03/23 05:31:44;;;;;;;39.13;26.73;;;256.60;2252.80;;;;;;5054005;28;20410;-74
2023/03/23 05:34:11;;;;;;;42.67;28.25;;;256.50;2252.80;;;;;;5070449;28;20044;-74
2023/03/23 05:36:37;;;;;;;37.15;25.80;;;256.50;2252.80;;;;;;5047538;28;20025;-75
2023/03/23 05:39:03;;;;;;;43.63;26.33;;;256.50;2252.80;;;;;;5047839;28;20494;-75
2023/03/23 05:41:29;;;;;;;40.03;26.40;;;256.60;2252.80;;;;;;5055690;28;20723;-76
2023/03/23 05:43:55;;;;;;;39.58;25.60;;;256.70;2252.80;;;;;;5055887;28;20030;-76
2023/03/23 05:46:20;;;;;;;;;;;256.70;2252.80;;;;;;5056415;28;20024;-77
2023/03/23 05:48:46;;;;;;;39.10;25.77;;;256.70;2252.80;;;;;;5071979;28;19995;-76
2023/03/23 05:51:12;;;;;;;;;;;256.60;2252.80;;;;;;5056585;28;20025;-76
2023/03/23 05:53:37;;;;;;;49.60;24.88;;;256.60;2252.80;;;;;;5074404;28;19908;-76
2023/03/23 05:56:03;;;;;;;;;;;256.60;2252.80;;;;;;5056544;28;20036;-76
2023/03/23 05:58:29;;;;;;;41.10;25.60;;;256.60;2252.80;;;;;;5056177;28;19987;-76
2023/03/23 06:00:55;;;;;;;41.33;26.92;;;256.70;2252.80;;;;;;5056224;28;20036;-76
2023/03/23 06:03:22;;;;;;;42.53;26.13;;;256.70;2252.80;;;;;;5055970;28;20490;-76
2023/03/23 06:05:48;;;;;;;48.38;29.20;;;256.80;2252.80;;;;;;5071347;28;20024;-77
2023/03/23 06:08:14;;;;;;;44.10;26.92;;;256.80;2252.80;;;;;;5074059;28;20040;-76
2023/03/23 06:10:40;;;;;;;44.42;27.85;;;256.90;2252.80;;;;;;5073787;28;20121;-76
2023/03/23 06:13:05;;;;;;;;;;;256.90;2252.80;;;;;;5074327;28;20028;-76
2023/03/23 06:15:32;;;;;;;43.97;28.85;;;281.60;2278.40;;;;;;5055647;28;19958;-75
2023/03/23 06:18:02;;;;;;;49.97;29.75;;;281.60;2278.40;;;;;;5066943;28;20076;-74
2023/03/23 06:20:28;;;;;;;48.55;29.83;;;281.70;2278.40;;;;;;5073463;28;20040;-76
2023/03/23 06:22:55;;;;;;;48.45;30.15;;;281.80;2278.40;;;;;;5053813;28;20024;-76
2023/03/23 06:25:22;;;;;;;54.53;32.97;;;282.00;2278.40;;;;;;5073585;28;20107;-76
2023/03/23 06:27:48;;;;;;;50.03;32.38;;;282.10;2278.40;;;;;;5042965;28;20028;-75
2023/03/23 06:30:17;;;;;;;40.88;28.65;;;282.30;2278.40;;;;;;5066764;28;20107;-76
2023/03/23 06:32:45;;;;;;;39.75;25.75;;;282.50;2278.40;;;;;;5073440;28;20027;-75
2023/03/23 06:35:11;;;;;;;43.83;26.55;;;307.20;2304.00;;;;;;5054958;28;20024;-75
2023/03/23 06:37:38;;;;;;;42.83;25.33;;;307.30;2304.00;;;;;;5073498;28;20021;-77
2023/03/23 06:40:06;;;;;;;36.63;23.95;;;307.40;2304.00;;;;;;5073384;28;20039;-77
2023/03/23 06:42:32;;;;;;;36.05;23.42;;;307.50;2304.00;;;;;;5068272;28;20040;-82
2023/03/23 06:45:00;;;;;;;49.78;24.50;;;307.70;2304.00;;;;;;5074213;28;20032;-84
2023/03/23 06:47:26;;;;;;;36.83;24.17;;;307.90;2304.00;;;;;;5073713;28;20062;-78
2023/03/23 06:49:52;;;;;;;34.40;22.77;;;308.10;2304.00;;;;;;5049919;28;20115;-82
2023/03/23 06:52:18;;;;;;;44.08;24.58;;;332.90;2329.60;;;;;;5055411;28;20028;-78
2023/03/23 06:54:44;;;;;;;34.40;22.73;;;333.00;2329.60;;;;;;5071470;28;20040;-78
2023/03/23 06:57:10;;;;;;;32.38;20.45;;;333.20;2329.60;;;;;;5051018;28;20024;-78
2023/03/23 06:59:35;;;;;;;29.40;20.27;;;333.40;2329.60;;;;;;5053653;28;20036;-79
2023/03/23 07:02:01;;;;;;;32.72;20.98;;;333.50;2329.60;;;;;;5056012;28;20017;-80
2023/03/23 07:04:27;;;;;;;32.28;19.98;;;333.60;2329.60;;;;;;5073057;28;20108;-79
2023/03/23 07:06:53;;;;;;;29.38;19.45;;;333.70;2329.60;;;;;;5049912;28;20405;-79
2023/03/23 07:09:18;;;;;;;34.75;21.63;;;358.40;2329.60;;;;;;5072482;28;20017;-81
2023/03/23 07:11:47;;;;;;;29.83;20.85;;;358.50;2329.60;;;;;;5055691;28;20031;-79
2023/03/23 07:14:13;;;;;;;31.88;22.65;;;358.50;2329.60;;;;;;5048187;28;20123;-79
2023/03/23 07:16:39;;;;;;;30.80;20.02;;;358.70;2329.60;;;;;;5047562;28;20035;-80
2023/03/23 07:19:04;;;;;;;32.67;21.15;;;358.80;2329.60;;;;;;5055149;28;20048;-81
2023/03/23 07:21:31;;;;;;;33.35;20.95;;;359.00;2329.60;;;;;;5048302;28;20024;-79
2023/03/23 07:23:56;;;;;;;27.45;18.67;;;359.20;2329.60;;;;;;5068812;28;20386;-79
2023/03/23 07:26:22;;;;;;;26.83;18.40;;;359.30;2329.60;;;;;;5055015;28;20100;-80
2023/03/23 07:28:48;;;;;;;30.77;20.08;;;384.00;2329.60;;;;;;5068904;28;20021;-77
2023/03/23 07:31:14;;;;;;;30.25;19.05;;;384.00;2329.60;;;;;;5073229;28;20025;-79
2023/03/23 07:33:39;;;;;;;27.15;18.60;;;384.00;2329.60;;;;;;5073191;28;20025;-78
2023/03/23 07:36:06;;;;;;;28.42;20.48;;;384.00;2329.60;;;;;;5054964;28;20055;-79
2023/03/23 07:38:32;;;;;;;27.63;18.73;;;384.20;2329.60;;;;;;5072122;28;20396;-78
2023/03/23 07:40:58;;;;;;;31.60;20.45;;;384.40;2329.60;;;;;;5048792;28;20039;-79
2023/03/23 07:43:24;;;;;;;29.40;18.48;;;384.40;2329.60;;;;;;5055035;28;20021;-78
2023/03/23 07:45:49;;;;;;;25.98;18.33;;;384.60;2329.60;;;;;;5055295;28;20025;-78
2023/03/23 07:48:15;;;;;;;28.67;18.13;;;384.70;2329.60;;;;;;5054134;28;20039;-76
2023/03/23 07:50:41;;;;;;;30.45;19.52;;;384.70;2329.60;;;;;;5048742;28;20387;-76
2023/03/23 07:53:07;;;;;;;39.60;19.33;;;384.90;2329.60;;;;;;5053261;28;20032;-76
2023/03/23 07:55:33;;;;;;;24.50;17.50;;;409.60;2355.20;;;;;;5071521;28;20465;-75
2023/03/23 07:57:58;;;;;;;24.52;17.60;;;409.60;2355.20;;;;;;5054182;28;20021;-77
2023/03/23 08:00:25;;;;;;;28.13;18.63;;;409.70;2355.20;;;;;;5071869;28;20027;-77
2023/03/23 08:02:55;;;;;;;28.67;18.40;;;409.80;2355.20;;;;;;5052870;28;20028;-78
2023/03/23 08:05:21;;;;;;;27.88;18.40;;;409.90;2355.20;;;;;;5046469;28;20017;-77
2023/03/23 08:07:48;;;;;;;34.33;19.05;;;410.00;2355.20;;;;;;5053913;28;20120;-77
2023/03/23 08:10:16;;;;;;;25.65;16.83;;;409.90;2355.20;;;;;;5054150;28;20066;-77
2023/03/23 08:12:43;;;;;;;24.73;17.08;;;410.00;2355.20;;;;;;5064553;28;20459;-77
2023/03/23 08:15:17;;;;;;;25.45;18.70;;;410.00;2355.20;;;;;;5050012;28;20040;-77
2023/03/23 08:17:43;;;;;;;24.25;17.20;;;410.10;2355.20;;;;;;5053998;28;20036;-79
2023/03/23 08:20:13;;;;;;;22.95;16.60;;;410.20;2355.20;;;;;;5040917;28;20158;-78
2023/03/23 08:22:44;;;;;;;24.38;15.52;;;410.20;2355.20;;;;;;5072587;28;20024;-78
2023/03/23 08:25:12;;;;;;;23.92;16.75;;;410.30;2355.20;;;;;;5072184;28;20035;-77
2023/03/23 08:27:43;;;;;;;25.75;17.33;;;410.40;2355.20;;;;;;5072069;28;20024;-77
2023/03/23 08:30:11;;;;;;;24.83;15.35;;;410.50;2355.20;;;;;;5070167;28;20025;-77
2023/03/23 08:32:37;;;;;;;24.30;14.48;;;435.20;2355.20;;;;;;5052541;28;20027;-77
2023/03/23 08:35:03;;;;;;;25.08;16.67;;;435.30;2355.20;;;;;;5051570;28;20028;-78
2023/03/23 08:37:29;;;;;;;23.33;14.13;;;435.20;2355.20;;;;;;5067202;28;20016;-76
2023/03/23 08:39:56;;;;;;;23.20;14.43;;;435.30;2355.20;;;;;;5044578;28;20386;-75
2023/03/23 08:42:24;;;;;;;20.23;13.88;;;435.40;2355.20;;;;;;5072083;28;20367;-74
2023/03/23 08:44:50;;;;;;;19.15;13.93;;;435.40;2355.20;;;;;;5071860;28;20051;-74
2023/03/23 08:47:16;;;;;;;22.95;14.85;;;435.50;2355.20;;;;;;5071846;28;20020;-74
2023/03/23 08:49:42;;;;;;;16.85;13.30;;;435.60;2355.20;;;;;;5071603;28;20033;-76
2023/03/23 08:52:09;;;;;;;21.95;13.77;;;435.60;2355.20;;;;;;5074458;28;20385;-76
2023/03/23 08:54:34;;;;;;;18.10;12.90;;;435.70;2355.20;;;;;;5075537;28;20036;-76
2023/03/23 08:57:01;;;;;;;22.58;13.00;;;435.80;2355.20;;;;;;5057388;28;20021;-76
2023/03/23 08:59:27;;;;;;;15.65;11.05;;;435.90;2355.20;;;;;;5057314;28;20032;-75
2023/03/23 09:01:54;;;;;;;19.30;11.68;;;435.90;2355.20;;;;;;5044973;28;20020;-76
2023/03/23 09:04:19;;;;;;;19.85;12.52;;;436.10;2355.20;;;;;;5075338;28;20028;-77
2023/03/23 09:06:45;;;;;;;17.98;10.98;;;460.80;2380.80;;;;;;5074695;28;20028;-75
2023/03/23 09:09:12;;;;;;;15.88;10.05;;;460.90;2380.80;;;;;;5070650;28;20016;-77
2023/03/23 09:11:38;;;;;;;16.92;11.20;;;461.00;2380.80;;;;;;5056004;28;20032;-73
2023/03/23 09:14:06;;;;;;;20.05;11.88;;;461.10;2227.20;;;;;;5073848;28;20486;-75
2023/03/23 09:16:32;;;;;;;19.02;12.18;;;461.10;2329.60;;;;;;5074764;28;20094;-71
2023/03/23 09:18:58;;;;;;;20.33;12.60;;;461.20;2380.80;;;;;;5074379;28;20051;-77
2023/03/23 09:21:25;;;;;;;18.33;11.23;;;461.40;2380.80;;;;;;5050788;28;20474;-78
2023/03/23 09:23:56;;;;;;;22.23;10.32;;;461.60;2304.00;;;;;;5056888;28;20051;-77
2023/03/23 09:26:22;;;;;;;21.58;10.93;;;461.70;2278.40;;;;;;5061665;28;20033;-77
2023/03/23 09:28:47;;;;;;;17.15;10.38;;;486.40;2073.60;;;;;;5070844;28;20460;-78
2023/03/23 09:31:13;;;;;;;16.33;9.70;;;486.40;2022.40;;;;;;5054042;28;20036;-78
2023/03/23 09:33:39;;;;;;;19.23;8.63;;;486.50;2022.40;;;;;;5070786;28;20052;-78
2023/03/23 09:36:07;;;;;;;13.50;10.23;;;486.70;1971.20;;;;;;5056367;28;20049;-78
2023/03/23 09:38:34;;;;;;;13.52;9.05;;;486.70;1920.00;;;;;;5056812;28;20025;-78
2023/03/23 09:41:11;;;;;;;18.73;10.23;;;486.80;1920.00;;;;;;5074259;28;20028;-78
2023/03/23 09:43:44;;;;;;;13.95;10.10;;;486.90;1894.40;;;;;;5049417;28;20112;-77
2023/03/23 09:46:32;;;;;;;15.13;10.85;;;487.00;1945.60;;;;;;5056801;28;20023;-78
2023/03/23 09:49:24;;;;;;;13.70;10.00;;;487.00;1868.80;;;;;;5069555;28;20092;-77
2023/03/23 09:52:09;;;;;;;15.23;10.40;;;487.10;1792.00;;;;;;5044882;28;20029;-78
2023/03/23 09:54:46;;;;;;;20.38;11.80;;;487.30;1817.60;;;;;;5038017;28;20050;-77
2023/03/23 09:57:35;;;;;;;13.35;9.02;;;512.00;1740.80;;;;;;5069975;28;20031;-77
2023/03/23 10:00:17;;;;;;;11.10;8.57;;;512.10;1689.60;;;;;;5067824;28;20037;-77
2023/03/23 10:03:02;;;;;;;11.60;7.70;;;512.30;1612.80;;;;;;5048780;28;20025;-77
2023/03/23 10:05:34;;;;;;;12.50;9.02;;;512.40;1561.60;;;;;;5065884;28;20047;-77
2023/03/23 10:08:02;;;;;;;15.38;10.20;;;512.50;1612.80;;;;;;5070099;28;20067;-76
2023/03/23 10:10:56;;;;;;;13.77;9.90;;;512.60;1561.60;;;;;;5056155;28;20115;-78
2023/03/23 10:13:55;;;;;;;14.13;8.40;;;512.90;1484.80;;;;;;5032326;28;20475;-79
2023/03/23 10:16:36;;;;;;;11.93;7.07;;;537.80;1510.40;;;;;;5072781;28;20032;-79
2023/03/23 10:19:23;;;;;;;11.18;7.05;;;537.80;1459.20;;;;;;5072066;28;20041;-78
2023/03/23 10:21:55;;;;;;;12.77;7.35;;;538.10;1408.00;;;;;;5053446;28;20060;-77
2023/03/23 10:24:28;;;;;;;10.85;6.30;;;538.00;1433.60;;;;;;5069504;28;20019;-79
2023/03/23 10:27:13;;;;;;;9.45;6.55;;;538.00;1408.00;;;;;;5070006;28;20025;-78
2023/03/23 10:29:51;;;;;;;9.57;6.30;;;538.20;1356.80;;;;;;5068124;28;20111;-79
2023/03/23 10:32:41;;;;;;;10.93;6.30;;;538.40;1280.00;;;;;;5055608;28;20067;-79
2023/03/23 10:35:14;;;;;;;7.53;5.38;;;538.40;1382.40;;;;;;5053539;28;20029;-78
2023/03/23 10:37:47;;;;;;;8.75;5.40;;;538.40;1356.80;;;;;;5054136;28;20020;-78
2023/03/23 10:40:23;;;;;;;8.00;5.38;;;538.50;1305.60;;;;;;5051006;28;20044;-78
2023/03/23 10:42:51;;;;;;;7.35;4.30;;;538.50;1331.20;;;;;;5051065;28;20042;-79
2023/03/23 10:45:24;;;;;;;11.05;5.78;;;563.20;1331.20;;;;;;5050781;28;20031;-79
2023/03/23 10:47:55;;;;;;;6.85;4.57;;;563.50;1356.80;;;;;;5042722;28;20047;-78
2023/03/23 10:50:32;;;;;;;15.80;6.00;;;563.20;1331.20;;;;;;5052430;28;20025;-80
2023/03/23 10:52:59;;;;;;;7.80;4.97;;;538.50;1331.20;;;;;;5051722;28;20070;-78
2023/03/23 10:55:37;;;;;;;6.97;4.40;;;563.60;1305.60;;;;;;5054450;28;20041;-78
2023/03/23 10:58:09;;;;;;;11.15;5.68;;;563.70;1254.40;;;;;;5050444;28;20020;-79
2023/03/23 11:00:44;;;;;;;9.15;5.40;;;563.70;1280.00;;;;;;5073471;28;20531;-78
2023/03/23 11:03:13;;;;;;;8.00;5.40;;;564.00;1254.40;;;;;;5049355;28;20021;-77
2023/03/23 11:05:44;;;;;;;26.85;8.60;;;589.00;1254.40;;;;;;5072721;28;20382;-78
2023/03/23 11:08:15;;;;;;;14.27;7.35;;;588.80;1280.00;;;;;;5049258;28;20525;-78
2023/03/23 11:11:09;;;;;;;11.10;6.57;;;564.10;1305.60;;;;;;5055113;28;20044;-78
2023/03/23 11:13:45;;;;;;;12.52;6.68;;;588.80;1305.60;;;;;;5037243;28;20090;-78
2023/03/23 11:16:30;;;;;;;8.75;6.80;;;589.00;1305.60;;;;;;5070220;28;20025;-78
2023/03/23 11:18:57;;;;;;;7.35;5.65;;;589.00;1254.40;;;;;;5044182;28;20514;-78
2023/03/23 11:21:24;;;;;;;8.15;6.00;;;589.30;1254.40;;;;;;5054785;28;20086;-78
2023/03/23 11:23:58;;;;;;;10.30;6.07;;;589.10;1254.40;;;;;;5041171;28;20382;-78
2023/03/23 11:26:33;;;;;;;9.48;6.50;;;589.40;1254.40;;;;;;5050584;28;20052;-78
2023/03/23 11:29:16;;;;;;;7.07;5.72;;;589.30;1280.00;;;;;;5068404;28;20033;-78
2023/03/23 11:31:48;;;;;;;9.00;6.03;;;589.60;1254.40;;;;;;5049085;28;20092;-77
2023/03/23 11:34:22;;;;;;;8.38;5.30;;;589.50;1228.80;;;;;;5066449;28;20104;-78
2023/03/23 11:36:54;;;;;;;12.45;6.50;;;589.20;1254.40;;;;;;5054437;28;20109;-76
2023/03/23 11:39:29;;;;;;;7.28;5.38;;;589.40;1280.00;;;;;;5072215;28;20016;-76
2023/03/23 11:41:58;;;;;;;14.75;7.00;;;589.50;1177.60;;;;;;5072464;28;20029;-76
2023/03/23 11:44:31;;;;;;;9.90;5.82;;;589.30;1177.60;;;;;;5068139;28;20033;-76
2023/03/23 11:47:00;;;;;;;14.60;6.13;;;589.40;1203.20;;;;;;5072404;28;20023;-77
2023/03/23 11:49:30;;;;;;;8.90;6.45;;;589.60;1228.80;;;;;;5070375;28;20082;-76
2023/03/23 11:52:05;;;;;;;9.50;5.60;;;589.20;1203.20;;;;;;5071994;28;20024;-77
2023/03/23 11:54:34;;;;;;;10.07;5.60;;;589.20;1228.80;;;;;;5071966;28;20020;-77
2023/03/23 11:57:00;;;;;;;7.85;5.43;;;589.10;1228.80;;;;;;5050023;28;20029;-77
2023/03/23 11:59:33;;;;;;;6.38;4.90;;;589.30;1203.20;;;;;;5072294;28;20070;-76
2023/03/23 12:02:27;;;;;;;7.93;5.90;;;589.40;1228.80;;;;;;5059443;28;20028;-77
2023/03/23 12:05:18;;;;;;;8.02;5.38;;;589.50;1203.20;;;;;;5068378;28;20094;-77
2023/03/23 12:08:11;;;;;;;15.85;5.05;;;614.50;1177.60;;;;;;5050732;28;20031;-76
2023/03/23 12:10:46;;;;;;;7.35;5.47;;;614.70;1126.40;;;;;;5072329;28;20024;-77
2023/03/23 12:13:23;;;;;;;9.70;5.77;;;614.60;1100.80;;;;;;5053924;28;20074;-77
2023/03/23 12:15:58;;;;;;;10.55;5.47;;;614.50;1126.40;;;;;;5052514;28;20040;-76
2023/03/23 12:18:51;;;;;;;8.27;4.95;;;589.70;1152.00;;;;;;5071620;28;20094;-77